sensor_id;sensor_type;location;lat;lon;timestamp;P1;durP1;ratioP1;P2;durP2;ratioP2
76962;SDS011;65902;51.452;7.198;2023-09-08T01:19:01;8.45;;;6.28;;
76962;SDS011;65902;51.452;7.198;2023-09-08T01:20:46;9.27;;;6.35;;
76962;SDS011;65902;51.452;7.198;2023-09-08T01:21:34;9.25;;;6.18;;
76962;SDS011;65902;51.452;7.198;2023-09-08T01:22:55;8.75;;;6.38;;
76962;SDS011;65902;51.452;7.198;2023-09-08T01:25:31;9.55;;;6.25;;
76962;SDS011;65902;51.452;7.198;2023-09-08T01:26:35;8.48;;;7.18;;
76962;SDS011;65902;51.452;7.198;2023-09-08T01:27:37;8.15;;;6.80;;
76962;SDS011;65902;51.452;7.198;2023-09-08T01:28:42;7.97;;;6.82;;
76962;SDS011;65902;51.452;7.198;2023-09-08T01:29:46;8.43;;;6.57;;
76962;SDS011;65902;51.452;7.198;2023-09-08T01:30:47;9.00;;;7.88;;
76962;SDS011;65902;51.452;7.198;2023-09-08T01:31:48;9.57;;;6.32;;
76962;SDS011;65902;51.452;7.198;2023-09-08T01:32:50;8.43;;;5.97;;
76962;SDS011;65902;51.452;7.198;2023-09-08T01:33:51;7.90;;;6.68;;
76962;SDS011;65902;51.452;7.198;2023-09-08T01:34:55;8.65;;;6.47;;
76962;SDS011;65902;51.452;7.198;2023-09-08T01:35:56;7.85;;;6.95;;
76962;SDS011;65902;51.452;7.198;2023-09-08T02:13:13;8.75;;;5.95;;
76962;SDS011;65902;51.452;7.198;2023-09-08T02:14:14;7.45;;;5.90;;
76962;SDS011;65902;51.452;7.198;2023-09-08T02:15:15;8.15;;;6.68;;
76962;SDS011;65902;51.452;7.198;2023-09-08T02:16:17;6.90;;;6.20;;
76962;SDS011;65902;51.452;7.198;2023-09-08T02:17:18;9.43;;;6.90;;
76962;SDS011;65902;51.452;7.198;2023-09-08T02:18:18;8.68;;;6.93;;
76962;SDS011;65902;51.452;7.198;2023-09-08T02:19:19;10.25;;;6.10;;
76962;SDS011;65902;51.452;7.198;2023-09-08T02:20:20;7.07;;;5.75;;
76962;SDS011;65902;51.452;7.198;2023-09-08T02:21:25;8.50;;;6.03;;
76962;SDS011;65902;51.452;7.198;2023-09-08T02:22:26;8.70;;;7.00;;
76962;SDS011;65902;51.452;7.198;2023-09-08T02:23:26;9.60;;;6.28;;
76962;SDS011;65902;51.452;7.198;2023-09-08T02:24:32;9.20;;;6.18;;
76962;SDS011;65902;51.452;7.198;2023-09-08T02:25:33;8.93;;;6.18;;
76962;SDS011;65902;51.452;7.198;2023-09-08T02:26:33;8.07;;;6.50;;
76962;SDS011;65902;51.452;7.198;2023-09-08T02:27:37;7.20;;;6.47;;
76962;SDS011;65902;51.452;7.198;2023-09-08T02:28:37;7.70;;;6.90;;
76962;SDS011;65902;51.452;7.198;2023-09-08T02:29:38;7.88;;;6.20;;
76962;SDS011;65902;51.452;7.198;2023-09-08T02:30:39;8.90;;;6.38;;
76962;SDS011;65902;51.452;7.198;2023-09-08T02:31:43;7.72;;;6.22;;
76962;SDS011;65902;51.452;7.198;2023-09-08T02:32:44;9.43;;;6.80;;
76962;SDS011;65902;51.452;7.198;2023-09-08T02:33:45;10.18;;;6.72;;
76962;SDS011;65902;51.452;7.198;2023-09-08T02:34:47;9.93;;;6.70;;
76962;SDS011;65902;51.452;7.198;2023-09-08T02:35:48;8.02;;;6.15;;
76962;SDS011;65902;51.452;7.198;2023-09-08T02:36:49;8.73;;;6.53;;
76962;SDS011;65902;51.452;7.198;2023-09-08T02:37:52;9.15;;;7.20;;
76962;SDS011;65902;51.452;7.198;2023-09-08T02:38:54;9.02;;;6.38;;
76962;SDS011;65902;51.452;7.198;2023-09-08T02:39:55;8.25;;;6.30;;
76962;SDS011;65902;51.452;7.198;2023-09-08T02:40:56;13.00;;;6.90;;
76962;SDS011;65902;51.452;7.198;2023-09-08T02:41:56;8.82;;;7.15;;
76962;SDS011;65902;51.452;7.198;2023-09-08T02:42:57;9.77;;;6.78;;
76962;SDS011;65902;51.452;7.198;2023-09-08T02:43:58;7.72;;;6.57;;
76962;SDS011;65902;51.452;7.198;2023-09-08T02:44:59;11.13;;;6.82;;
76962;SDS011;65902;51.452;7.198;2023-09-08T02:46:00;9.27;;;7.20;;
76962;SDS011;65902;51.452;7.198;2023-09-08T02:47:00;8.50;;;6.65;;
76962;SDS011;65902;51.452;7.198;2023-09-08T02:48:03;10.25;;;7.97;;
76962;SDS011;65902;51.452;7.198;2023-09-08T02:49:05;8.30;;;6.38;;
76962;SDS011;65902;51.452;7.198;2023-09-08T02:50:07;9.32;;;6.03;;
76962;SDS011;65902;51.452;7.198;2023-09-08T02:51:07;7.95;;;6.78;;
76962;SDS011;65902;51.452;7.198;2023-09-08T02:52:08;8.25;;;6.47;;
76962;SDS011;65902;51.452;7.198;2023-09-08T02:53:08;8.13;;;6.68;;
76962;SDS011;65902;51.452;7.198;2023-09-08T02:54:09;8.93;;;6.40;;
76962;SDS011;65902;51.452;7.198;2023-09-08T02:55:14;8.55;;;6.72;;
76962;SDS011;65902;51.452;7.198;2023-09-08T02:56:14;8.43;;;6.70;;
76962;SDS011;65902;51.452;7.198;2023-09-08T02:57:15;11.70;;;5.70;;
76962;SDS011;65902;51.452;7.198;2023-09-08T02:58:15;8.27;;;6.43;;
76962;SDS011;65902;51.452;7.198;2023-09-08T02:59:16;9.32;;;6.35;;
76962;SDS011;65902;51.452;7.198;2023-09-08T03:00:20;10.25;;;6.60;;
76962;SDS011;65902;51.452;7.198;2023-09-08T03:01:27;8.75;;;6.72;;
76962;SDS011;65902;51.452;7.198;2023-09-08T03:02:31;7.18;;;5.93;;
76962;SDS011;65902;51.452;7.198;2023-09-08T03:03:32;8.75;;;6.55;;
76962;SDS011;65902;51.452;7.198;2023-09-08T03:04:33;9.50;;;6.60;;
76962;SDS011;65902;51.452;7.198;2023-09-08T03:05:34;8.23;;;6.10;;
76962;SDS011;65902;51.452;7.198;2023-09-08T03:06:34;7.80;;;6.35;;
76962;SDS011;65902;51.452;7.198;2023-09-08T03:07:36;9.80;;;6.90;;
76962;SDS011;65902;51.452;7.198;2023-09-08T03:08:37;9.10;;;6.25;;
76962;SDS011;65902;51.452;7.198;2023-09-08T03:09:38;10.10;;;6.47;;
76962;SDS011;65902;51.452;7.198;2023-09-08T03:10:40;8.95;;;7.03;;
76962;SDS011;65902;51.452;7.198;2023-09-08T03:11:41;7.15;;;6.00;;
76962;SDS011;65902;51.452;7.198;2023-09-08T03:12:46;7.50;;;5.47;;
76962;SDS011;65902;51.452;7.198;2023-09-08T03:13:50;9.18;;;6.38;;
76962;SDS011;65902;51.452;7.198;2023-09-08T03:14:50;8.48;;;6.68;;
76962;SDS011;65902;51.452;7.198;2023-09-08T03:15:55;8.32;;;6.68;;
76962;SDS011;65902;51.452;7.198;2023-09-08T03:16:57;8.00;;;5.85;;
76962;SDS011;65902;51.452;7.198;2023-09-08T03:18:00;8.40;;;6.53;;
76962;SDS011;65902;51.452;7.198;2023-09-08T03:19:01;12.48;;;7.05;;
76962;SDS011;65902;51.452;7.198;2023-09-08T03:20:02;7.75;;;6.55;;
76962;SDS011;65902;51.452;7.198;2023-09-08T03:21:07;8.23;;;6.40;;
76962;SDS011;65902;51.452;7.198;2023-09-08T03:22:11;8.15;;;7.00;;
76962;SDS011;65902;51.452;7.198;2023-09-08T03:23:12;8.43;;;6.00;;
76962;SDS011;65902;51.452;7.198;2023-09-08T03:24:13;8.07;;;6.60;;
76962;SDS011;65902;51.452;7.198;2023-09-08T03:25:14;8.55;;;7.03;;
76962;SDS011;65902;51.452;7.198;2023-09-08T03:26:16;8.95;;;6.75;;
76962;SDS011;65902;51.452;7.198;2023-09-08T03:28:20;7.68;;;6.85;;
76962;SDS011;65902;51.452;7.198;2023-09-08T03:29:22;10.55;;;6.70;;
76962;SDS011;65902;51.452;7.198;2023-09-08T03:30:22;8.43;;;6.15;;
76962;SDS011;65902;51.452;7.198;2023-09-08T03:31:27;10.27;;;6.82;;
76962;SDS011;65902;51.452;7.198;2023-09-08T03:32:28;8.32;;;6.47;;
76962;SDS011;65902;51.452;7.198;2023-09-08T03:33:29;7.00;;;5.97;;
76962;SDS011;65902;51.452;7.198;2023-09-08T03:34:30;8.63;;;7.30;;
76962;SDS011;65902;51.452;7.198;2023-09-08T03:35:31;7.57;;;6.15;;
76962;SDS011;65902;51.452;7.198;2023-09-08T03:36:32;8.57;;;6.13;;
76962;SDS011;65902;51.452;7.198;2023-09-08T03:37:36;8.65;;;6.95;;
76962;SDS011;65902;51.452;7.198;2023-09-08T03:38:36;9.13;;;6.40;;
76962;SDS011;65902;51.452;7.198;2023-09-08T03:39:38;10.73;;;6.30;;
76962;SDS011;65902;51.452;7.198;2023-09-08T03:40:39;7.57;;;6.25;;
76962;SDS011;65902;51.452;7.198;2023-09-08T03:41:39;7.82;;;6.25;;
76962;SDS011;65902;51.452;7.198;2023-09-08T03:42:40;7.88;;;6.45;;
76962;SDS011;65902;51.452;7.198;2023-09-08T03:43:42;9.07;;;6.88;;
76962;SDS011;65902;51.452;7.198;2023-09-08T03:44:44;9.18;;;6.40;;
76962;SDS011;65902;51.452;7.198;2023-09-08T03:45:51;9.65;;;7.03;;
76962;SDS011;65902;51.452;7.198;2023-09-08T03:46:51;9.40;;;6.88;;
76962;SDS011;65902;51.452;7.198;2023-09-08T03:47:52;8.60;;;7.70;;
76962;SDS011;65902;51.452;7.198;2023-09-08T03:48:52;8.60;;;6.00;;
76962;SDS011;65902;51.452;7.198;2023-09-08T03:50:03;7.93;;;6.00;;
76962;SDS011;65902;51.452;7.198;2023-09-08T03:51:06;8.07;;;6.55;;
76962;SDS011;65902;51.452;7.198;2023-09-08T03:52:06;9.05;;;6.30;;
76962;SDS011;65902;51.452;7.198;2023-09-08T03:53:11;8.05;;;6.45;;
76962;SDS011;65902;51.452;7.198;2023-09-08T03:54:12;8.73;;;7.15;;
76962;SDS011;65902;51.452;7.198;2023-09-08T03:55:16;8.50;;;6.45;;
76962;SDS011;65902;51.452;7.198;2023-09-08T03:56:17;8.88;;;6.32;;
76962;SDS011;65902;51.452;7.198;2023-09-08T03:57:17;7.43;;;5.90;;
76962;SDS011;65902;51.452;7.198;2023-09-08T03:58:20;7.82;;;6.55;;
76962;SDS011;65902;51.452;7.198;2023-09-08T03:59:21;7.72;;;6.40;;
76962;SDS011;65902;51.452;7.198;2023-09-08T04:00:22;9.13;;;6.28;;
76962;SDS011;65902;51.452;7.198;2023-09-08T04:01:25;9.60;;;6.43;;
76962;SDS011;65902;51.452;7.198;2023-09-08T04:02:28;12.82;;;6.90;;
76962;SDS011;65902;51.452;7.198;2023-09-08T04:03:29;10.10;;;6.35;;
76962;SDS011;65902;51.452;7.198;2023-09-08T04:04:33;8.63;;;6.60;;
76962;SDS011;65902;51.452;7.198;2023-09-08T04:05:35;8.32;;;6.90;;
76962;SDS011;65902;51.452;7.198;2023-09-08T04:06:35;7.68;;;5.85;;
76962;SDS011;65902;51.452;7.198;2023-09-08T04:07:36;8.45;;;6.78;;
76962;SDS011;65902;51.452;7.198;2023-09-08T04:08:37;8.68;;;6.32;;
76962;SDS011;65902;51.452;7.198;2023-09-08T04:09:37;8.93;;;5.88;;
76962;SDS011;65902;51.452;7.198;2023-09-08T04:10:41;10.75;;;7.32;;
76962;SDS011;65902;51.452;7.198;2023-09-08T04:11:41;8.00;;;7.20;;
76962;SDS011;65902;51.452;7.198;2023-09-08T04:12:42;10.45;;;7.00;;
76962;SDS011;65902;51.452;7.198;2023-09-08T04:13:43;8.65;;;6.72;;
76962;SDS011;65902;51.452;7.198;2023-09-08T04:14:43;7.72;;;6.70;;
76962;SDS011;65902;51.452;7.198;2023-09-08T04:15:44;8.07;;;6.60;;
76962;SDS011;65902;51.452;7.198;2023-09-08T04:16:45;10.95;;;7.30;;
76962;SDS011;65902;51.452;7.198;2023-09-08T04:17:45;11.68;;;6.78;;
76962;SDS011;65902;51.452;7.198;2023-09-08T04:18:46;12.30;;;6.78;;
76962;SDS011;65902;51.452;7.198;2023-09-08T04:19:46;11.23;;;6.78;;
76962;SDS011;65902;51.452;7.198;2023-09-08T04:20:50;9.38;;;6.65;;
76962;SDS011;65902;51.452;7.198;2023-09-08T04:21:54;7.90;;;6.10;;
76962;SDS011;65902;51.452;7.198;2023-09-08T04:22:54;8.60;;;6.18;;
76962;SDS011;65902;51.452;7.198;2023-09-08T04:23:57;9.02;;;6.70;;
76962;SDS011;65902;51.452;7.198;2023-09-08T04:25:05;9.05;;;6.35;;
76962;SDS011;65902;51.452;7.198;2023-09-08T04:26:09;9.35;;;7.32;;
76962;SDS011;65902;51.452;7.198;2023-09-08T04:27:14;9.60;;;5.65;;
76962;SDS011;65902;51.452;7.198;2023-09-08T04:28:15;10.50;;;6.90;;
76962;SDS011;65902;51.452;7.198;2023-09-08T04:29:15;8.77;;;6.65;;
76962;SDS011;65902;51.452;7.198;2023-09-08T04:30:16;7.70;;;6.90;;
76962;SDS011;65902;51.452;7.198;2023-09-08T04:31:20;8.40;;;6.45;;
76962;SDS011;65902;51.452;7.198;2023-09-08T04:32:22;8.73;;;7.10;;
76962;SDS011;65902;51.452;7.198;2023-09-08T04:33:23;9.40;;;6.25;;
76962;SDS011;65902;51.452;7.198;2023-09-08T04:34:24;8.20;;;6.00;;
76962;SDS011;65902;51.452;7.198;2023-09-08T04:35:24;9.20;;;6.18;;
76962;SDS011;65902;51.452;7.198;2023-09-08T04:36:26;8.30;;;6.32;;
76962;SDS011;65902;51.452;7.198;2023-09-08T04:37:26;8.82;;;6.30;;
76962;SDS011;65902;51.452;7.198;2023-09-08T04:38:27;10.82;;;6.40;;
76962;SDS011;65902;51.452;7.198;2023-09-08T04:39:27;7.82;;;6.22;;
76962;SDS011;65902;51.452;7.198;2023-09-08T04:40:28;7.85;;;6.65;;
76962;SDS011;65902;51.452;7.198;2023-09-08T04:41:29;11.50;;;6.43;;
76962;SDS011;65902;51.452;7.198;2023-09-08T04:42:30;8.48;;;5.97;;
76962;SDS011;65902;51.452;7.198;2023-09-08T04:43:31;8.23;;;6.55;;
76962;SDS011;65902;51.452;7.198;2023-09-08T04:44:31;7.32;;;5.72;;
76962;SDS011;65902;51.452;7.198;2023-09-08T04:45:32;7.95;;;6.32;;
76962;SDS011;65902;51.452;7.198;2023-09-08T04:46:34;10.98;;;6.22;;
76962;SDS011;65902;51.452;7.198;2023-09-08T04:47:35;7.95;;;5.70;;
76962;SDS011;65902;51.452;7.198;2023-09-08T04:48:36;7.40;;;5.85;;
76962;SDS011;65902;51.452;7.198;2023-09-08T04:49:36;11.63;;;6.72;;
76962;SDS011;65902;51.452;7.198;2023-09-08T04:50:37;10.57;;;7.25;;
76962;SDS011;65902;51.452;7.198;2023-09-08T04:51:43;10.95;;;5.72;;
76962;SDS011;65902;51.452;7.198;2023-09-08T04:52:44;8.90;;;5.90;;
76962;SDS011;65902;51.452;7.198;2023-09-08T04:53:45;7.05;;;5.60;;
76962;SDS011;65902;51.452;7.198;2023-09-08T04:54:45;6.97;;;6.05;;
76962;SDS011;65902;51.452;7.198;2023-09-08T04:55:46;9.10;;;5.97;;
76962;SDS011;65902;51.452;7.198;2023-09-08T04:56:53;7.78;;;6.13;;
76962;SDS011;65902;51.452;7.198;2023-09-08T04:57:54;6.85;;;5.63;;
76962;SDS011;65902;51.452;7.198;2023-09-08T04:58:54;7.53;;;5.60;;
76962;SDS011;65902;51.452;7.198;2023-09-08T04:59:56;8.52;;;6.45;;
76962;SDS011;65902;51.452;7.198;2023-09-08T05:00:56;7.22;;;6.43;;
76962;SDS011;65902;51.452;7.198;2023-09-08T05:01:58;9.27;;;6.05;;
76962;SDS011;65902;51.452;7.198;2023-09-08T05:02:59;7.20;;;5.20;;
76962;SDS011;65902;51.452;7.198;2023-09-08T05:03:59;8.30;;;6.20;;
76962;SDS011;65902;51.452;7.198;2023-09-08T05:05:00;7.90;;;6.28;;
76962;SDS011;65902;51.452;7.198;2023-09-08T05:06:00;8.07;;;6.13;;
76962;SDS011;65902;51.452;7.198;2023-09-08T05:07:02;8.45;;;6.10;;
76962;SDS011;65902;51.452;7.198;2023-09-08T05:08:02;7.05;;;5.93;;
76962;SDS011;65902;51.452;7.198;2023-09-08T05:09:03;10.25;;;5.68;;
76962;SDS011;65902;51.452;7.198;2023-09-08T05:10:04;7.22;;;5.38;;
76962;SDS011;65902;51.452;7.198;2023-09-08T05:11:05;6.93;;;5.65;;
76962;SDS011;65902;51.452;7.198;2023-09-08T05:12:07;7.93;;;5.68;;
76962;SDS011;65902;51.452;7.198;2023-09-08T05:13:13;8.63;;;5.55;;
76962;SDS011;65902;51.452;7.198;2023-09-08T05:14:15;6.80;;;5.82;;
76962;SDS011;65902;51.452;7.198;2023-09-08T05:15:15;8.88;;;5.65;;
76962;SDS011;65902;51.452;7.198;2023-09-08T05:16:16;9.82;;;6.07;;
76962;SDS011;65902;51.452;7.198;2023-09-08T05:17:19;7.63;;;5.95;;
76962;SDS011;65902;51.452;7.198;2023-09-08T05:18:19;7.35;;;5.68;;
76962;SDS011;65902;51.452;7.198;2023-09-08T05:19:21;9.27;;;5.63;;
76962;SDS011;65902;51.452;7.198;2023-09-08T05:20:23;7.05;;;5.53;;
76962;SDS011;65902;51.452;7.198;2023-09-08T05:21:26;7.05;;;5.20;;
76962;SDS011;65902;51.452;7.198;2023-09-08T05:22:26;7.00;;;5.70;;
76962;SDS011;65902;51.452;7.198;2023-09-08T05:23:27;7.80;;;5.57;;
76962;SDS011;65902;51.452;7.198;2023-09-08T05:24:29;8.77;;;6.75;;
76962;SDS011;65902;51.452;7.198;2023-09-08T05:25:33;8.48;;;6.30;;
76962;SDS011;65902;51.452;7.198;2023-09-08T05:26:36;7.47;;;5.88;;
76962;SDS011;65902;51.452;7.198;2023-09-08T05:27:38;9.25;;;6.00;;
76962;SDS011;65902;51.452;7.198;2023-09-08T05:28:38;8.52;;;6.53;;
76962;SDS011;65902;51.452;7.198;2023-09-08T05:29:39;7.72;;;5.55;;
76962;SDS011;65902;51.452;7.198;2023-09-08T05:30:40;9.65;;;5.63;;
76962;SDS011;65902;51.452;7.198;2023-09-08T05:31:41;9.30;;;5.85;;
76962;SDS011;65902;51.452;7.198;2023-09-08T05:32:42;8.07;;;5.80;;
76962;SDS011;65902;51.452;7.198;2023-09-08T05:33:42;9.07;;;5.85;;
76962;SDS011;65902;51.452;7.198;2023-09-08T05:34:43;9.35;;;5.32;;
76962;SDS011;65902;51.452;7.198;2023-09-08T05:35:50;9.80;;;6.15;;
76962;SDS011;65902;51.452;7.198;2023-09-08T05:36:51;9.10;;;5.75;;
76962;SDS011;65902;51.452;7.198;2023-09-08T05:37:51;7.47;;;6.22;;
76962;SDS011;65902;51.452;7.198;2023-09-08T05:38:52;7.18;;;5.85;;
76962;SDS011;65902;51.452;7.198;2023-09-08T05:39:52;8.68;;;5.97;;
76962;SDS011;65902;51.452;7.198;2023-09-08T05:40:54;10.18;;;6.30;;
76962;SDS011;65902;51.452;7.198;2023-09-08T05:41:57;8.02;;;5.43;;
76962;SDS011;65902;51.452;7.198;2023-09-08T05:42:58;8.15;;;5.72;;
76962;SDS011;65902;51.452;7.198;2023-09-08T05:44:00;16.85;;;5.82;;
76962;SDS011;65902;51.452;7.198;2023-09-08T05:45:01;7.75;;;5.45;;
76962;SDS011;65902;51.452;7.198;2023-09-08T05:46:02;7.30;;;5.80;;
76962;SDS011;65902;51.452;7.198;2023-09-08T05:47:04;8.10;;;6.05;;
76962;SDS011;65902;51.452;7.198;2023-09-08T05:48:05;9.13;;;6.80;;
76962;SDS011;65902;51.452;7.198;2023-09-08T05:49:07;7.72;;;6.45;;
76962;SDS011;65902;51.452;7.198;2023-09-08T05:50:09;9.05;;;6.82;;
76962;SDS011;65902;51.452;7.198;2023-09-08T05:51:10;8.70;;;6.32;;
76962;SDS011;65902;51.452;7.198;2023-09-08T05:52:12;9.93;;;6.35;;
76962;SDS011;65902;51.452;7.198;2023-09-08T05:53:13;11.00;;;6.35;;
76962;SDS011;65902;51.452;7.198;2023-09-08T05:54:14;8.18;;;6.32;;
76962;SDS011;65902;51.452;7.198;2023-09-08T05:55:15;9.60;;;6.53;;
76962;SDS011;65902;51.452;7.198;2023-09-08T05:56:18;16.55;;;7.97;;
76962;SDS011;65902;51.452;7.198;2023-09-08T05:57:19;10.98;;;6.18;;
76962;SDS011;65902;51.452;7.198;2023-09-08T05:58:19;8.40;;;5.85;;
76962;SDS011;65902;51.452;7.198;2023-09-08T05:59:20;12.20;;;6.00;;
76962;SDS011;65902;51.452;7.198;2023-09-08T06:00:20;8.68;;;6.70;;
76962;SDS011;65902;51.452;7.198;2023-09-08T06:01:22;8.88;;;6.13;;
76962;SDS011;65902;51.452;7.198;2023-09-08T06:02:25;8.73;;;6.88;;
76962;SDS011;65902;51.452;7.198;2023-09-08T06:03:26;9.52;;;6.78;;
76962;SDS011;65902;51.452;7.198;2023-09-08T06:04:26;10.30;;;6.70;;
76962;SDS011;65902;51.452;7.198;2023-09-08T06:05:28;9.68;;;6.63;;
76962;SDS011;65902;51.452;7.198;2023-09-08T06:06:29;6.80;;;6.07;;
76962;SDS011;65902;51.452;7.198;2023-09-08T06:07:31;11.00;;;6.60;;
76962;SDS011;65902;51.452;7.198;2023-09-08T06:08:32;11.80;;;7.70;;
76962;SDS011;65902;51.452;7.198;2023-09-08T06:09:33;9.15;;;6.97;;
76962;SDS011;65902;51.452;7.198;2023-09-08T06:10:34;9.00;;;7.00;;
76962;SDS011;65902;51.452;7.198;2023-09-08T06:11:35;9.45;;;7.03;;
76962;SDS011;65902;51.452;7.198;2023-09-08T06:12:38;9.57;;;6.63;;
76962;SDS011;65902;51.452;7.198;2023-09-08T06:13:39;9.55;;;6.97;;
76962;SDS011;65902;51.452;7.198;2023-09-08T06:14:39;10.38;;;6.70;;
76962;SDS011;65902;51.452;7.198;2023-09-08T06:15:40;13.93;;;6.68;;
76962;SDS011;65902;51.452;7.198;2023-09-08T06:16:40;12.68;;;7.38;;
76962;SDS011;65902;51.452;7.198;2023-09-08T06:17:42;12.20;;;6.75;;
76962;SDS011;65902;51.452;7.198;2023-09-08T06:18:43;9.77;;;6.35;;
76962;SDS011;65902;51.452;7.198;2023-09-08T06:19:45;11.63;;;6.32;;
76962;SDS011;65902;51.452;7.198;2023-09-08T06:20:47;9.73;;;6.45;;
76962;SDS011;65902;51.452;7.198;2023-09-08T06:21:48;12.32;;;7.22;;
76962;SDS011;65902;51.452;7.198;2023-09-08T06:22:49;9.05;;;6.47;;
76962;SDS011;65902;51.452;7.198;2023-09-08T06:23:51;8.45;;;6.47;;
76962;SDS011;65902;51.452;7.198;2023-09-08T06:24:53;8.70;;;6.15;;
76962;SDS011;65902;51.452;7.198;2023-09-08T06:25:56;10.63;;;6.13;;
76962;SDS011;65902;51.452;7.198;2023-09-08T06:27:00;8.68;;;5.72;;
76962;SDS011;65902;51.452;7.198;2023-09-08T06:28:01;11.55;;;6.03;;
76962;SDS011;65902;51.452;7.198;2023-09-08T06:29:02;7.32;;;5.57;;
76962;SDS011;65902;51.452;7.198;2023-09-08T06:30:03;9.30;;;5.70;;
76962;SDS011;65902;51.452;7.198;2023-09-08T06:31:05;7.20;;;5.43;;
76962;SDS011;65902;51.452;7.198;2023-09-08T06:32:08;9.43;;;5.85;;
76962;SDS011;65902;51.452;7.198;2023-09-08T06:33:08;6.53;;;5.28;;
76962;SDS011;65902;51.452;7.198;2023-09-08T06:34:09;6.57;;;5.75;;
76962;SDS011;65902;51.452;7.198;2023-09-08T06:35:11;7.18;;;5.85;;
76962;SDS011;65902;51.452;7.198;2023-09-08T06:36:12;7.00;;;5.07;;
76962;SDS011;65902;51.452;7.198;2023-09-08T06:37:12;7.13;;;5.25;;
76962;SDS011;65902;51.452;7.198;2023-09-08T06:38:14;9.52;;;5.50;;
76962;SDS011;65902;51.452;7.198;2023-09-08T06:39:15;9.23;;;5.55;;
76962;SDS011;65902;51.452;7.198;2023-09-08T06:40:16;7.82;;;5.70;;
76962;SDS011;65902;51.452;7.198;2023-09-08T06:41:17;8.23;;;6.13;;
76962;SDS011;65902;51.452;7.198;2023-09-08T06:42:21;7.32;;;5.35;;
76962;SDS011;65902;51.452;7.198;2023-09-08T06:43:22;6.95;;;5.68;;
76962;SDS011;65902;51.452;7.198;2023-09-08T06:44:23;9.63;;;6.00;;
76962;SDS011;65902;51.452;7.198;2023-09-08T06:45:25;7.07;;;4.85;;
76962;SDS011;65902;51.452;7.198;2023-09-08T06:46:27;7.43;;;5.82;;
76962;SDS011;65902;51.452;7.198;2023-09-08T06:47:27;12.90;;;5.70;;
76962;SDS011;65902;51.452;7.198;2023-09-08T06:48:29;11.30;;;6.22;;
76962;SDS011;65902;51.452;7.198;2023-09-08T06:49:29;6.28;;;5.18;;
76962;SDS011;65902;51.452;7.198;2023-09-08T06:50:31;6.53;;;5.20;;
76962;SDS011;65902;51.452;7.198;2023-09-08T06:51:31;6.55;;;5.40;;
76962;SDS011;65902;51.452;7.198;2023-09-08T06:52:32;6.70;;;5.03;;
76962;SDS011;65902;51.452;7.198;2023-09-08T06:53:33;11.30;;;5.30;;
76962;SDS011;65902;51.452;7.198;2023-09-08T06:54:33;6.18;;;5.20;;
76962;SDS011;65902;51.452;7.198;2023-09-08T06:55:34;6.00;;;5.03;;
76962;SDS011;65902;51.452;7.198;2023-09-08T06:56:35;14.35;;;5.18;;
76962;SDS011;65902;51.452;7.198;2023-09-08T06:57:37;6.70;;;5.35;;
76962;SDS011;65902;51.452;7.198;2023-09-08T06:58:38;11.60;;;5.80;;
76962;SDS011;65902;51.452;7.198;2023-09-08T06:59:38;10.18;;;5.63;;
76962;SDS011;65902;51.452;7.198;2023-09-08T07:00:38;8.50;;;6.18;;
76962;SDS011;65902;51.452;7.198;2023-09-08T07:01:42;5.90;;;5.22;;
76962;SDS011;65902;51.452;7.198;2023-09-08T07:02:45;7.95;;;5.75;;
76962;SDS011;65902;51.452;7.198;2023-09-08T07:03:46;8.35;;;5.43;;
76962;SDS011;65902;51.452;7.198;2023-09-08T07:05:16;7.20;;;5.50;;
76962;SDS011;65902;51.452;7.198;2023-09-08T07:06:22;7.00;;;5.32;;
76962;SDS011;65902;51.452;7.198;2023-09-08T07:07:32;9.13;;;5.35;;
76962;SDS011;65902;51.452;7.198;2023-09-08T07:08:35;6.80;;;4.80;;
76962;SDS011;65902;51.452;7.198;2023-09-08T07:09:46;6.53;;;5.10;;
76962;SDS011;65902;51.452;7.198;2023-09-08T07:10:51;6.35;;;4.82;;
76962;SDS011;65902;51.452;7.198;2023-09-08T07:12:04;6.68;;;4.80;;
76962;SDS011;65902;51.452;7.198;2023-09-08T07:13:06;9.40;;;4.88;;
76962;SDS011;65902;51.452;7.198;2023-09-08T07:14:06;7.60;;;5.90;;
76962;SDS011;65902;51.452;7.198;2023-09-08T07:15:07;10.48;;;4.93;;
76962;SDS011;65902;51.452;7.198;2023-09-08T07:16:09;5.70;;;4.63;;
76962;SDS011;65902;51.452;7.198;2023-09-08T07:17:15;6.28;;;4.60;;
76962;SDS011;65902;51.452;7.198;2023-09-08T07:18:16;6.63;;;5.03;;
76962;SDS011;65902;51.452;7.198;2023-09-08T07:19:16;8.77;;;5.88;;
76962;SDS011;65902;51.452;7.198;2023-09-08T07:20:17;5.30;;;4.60;;
76962;SDS011;65902;51.452;7.198;2023-09-08T07:21:18;7.72;;;4.70;;
76962;SDS011;65902;51.452;7.198;2023-09-08T07:22:19;8.25;;;5.05;;
76962;SDS011;65902;51.452;7.198;2023-09-08T07:23:19;7.68;;;5.20;;
76962;SDS011;65902;51.452;7.198;2023-09-08T07:24:20;8.18;;;5.20;;
76962;SDS011;65902;51.452;7.198;2023-09-08T07:25:20;7.10;;;5.13;;
76962;SDS011;65902;51.452;7.198;2023-09-08T07:26:21;6.55;;;5.00;;
76962;SDS011;65902;51.452;7.198;2023-09-08T07:27:22;9.60;;;4.90;;
76962;SDS011;65902;51.452;7.198;2023-09-08T07:28:23;7.85;;;5.18;;
76962;SDS011;65902;51.452;7.198;2023-09-08T07:29:24;6.55;;;5.20;;
76962;SDS011;65902;51.452;7.198;2023-09-08T07:30:25;6.65;;;4.90;;
76962;SDS011;65902;51.452;7.198;2023-09-08T07:31:29;6.65;;;4.65;;
76962;SDS011;65902;51.452;7.198;2023-09-08T07:32:30;6.50;;;5.30;;
76962;SDS011;65902;51.452;7.198;2023-09-08T07:33:31;5.55;;;5.05;;
76962;SDS011;65902;51.452;7.198;2023-09-08T07:34:34;5.93;;;4.68;;
76962;SDS011;65902;51.452;7.198;2023-09-08T07:35:38;7.85;;;5.22;;
76962;SDS011;65902;51.452;7.198;2023-09-08T07:36:39;6.90;;;5.53;;
76962;SDS011;65902;51.452;7.198;2023-09-08T07:37:40;7.18;;;4.85;;
76962;SDS011;65902;51.452;7.198;2023-09-08T07:38:41;6.47;;;5.00;;
76962;SDS011;65902;51.452;7.198;2023-09-08T07:39:41;6.72;;;4.82;;
76962;SDS011;65902;51.452;7.198;2023-09-08T07:40:43;7.60;;;5.57;;
76962;SDS011;65902;51.452;7.198;2023-09-08T07:41:47;7.93;;;4.82;;
76962;SDS011;65902;51.452;7.198;2023-09-08T07:42:48;6.88;;;4.80;;
76962;SDS011;65902;51.452;7.198;2023-09-08T07:43:51;5.85;;;4.95;;
76962;SDS011;65902;51.452;7.198;2023-09-08T07:44:52;9.35;;;4.65;;
76962;SDS011;65902;51.452;7.198;2023-09-08T07:45:58;9.85;;;5.60;;
76962;SDS011;65902;51.452;7.198;2023-09-08T07:46:58;7.63;;;4.72;;
76962;SDS011;65902;51.452;7.198;2023-09-08T07:47:59;8.15;;;4.47;;
76962;SDS011;65902;51.452;7.198;2023-09-08T07:49:00;6.90;;;5.20;;
76962;SDS011;65902;51.452;7.198;2023-09-08T07:50:16;7.15;;;4.75;;
76962;SDS011;65902;51.452;7.198;2023-09-08T07:51:17;8.98;;;4.78;;
76962;SDS011;65902;51.452;7.198;2023-09-08T07:52:18;6.72;;;4.75;;
76962;SDS011;65902;51.452;7.198;2023-09-08T07:53:19;8.00;;;4.85;;
76962;SDS011;65902;51.452;7.198;2023-09-08T07:54:24;9.02;;;4.88;;
76962;SDS011;65902;51.452;7.198;2023-09-08T07:55:24;7.07;;;5.13;;
76962;SDS011;65902;51.452;7.198;2023-09-08T07:56:28;9.15;;;6.20;;
76962;SDS011;65902;51.452;7.198;2023-09-08T07:57:31;8.80;;;4.50;;
76962;SDS011;65902;51.452;7.198;2023-09-08T07:58:32;5.97;;;4.80;;
76962;SDS011;65902;51.452;7.198;2023-09-08T07:59:33;5.60;;;4.63;;
76962;SDS011;65902;51.452;7.198;2023-09-08T08:00:36;6.50;;;5.80;;
76962;SDS011;65902;51.452;7.198;2023-09-08T08:01:36;7.22;;;4.72;;
76962;SDS011;65902;51.452;7.198;2023-09-08T08:02:51;7.30;;;4.65;;
76962;SDS011;65902;51.452;7.198;2023-09-08T08:03:54;7.55;;;5.07;;
76962;SDS011;65902;51.452;7.198;2023-09-08T08:04:54;8.23;;;4.60;;
76962;SDS011;65902;51.452;7.198;2023-09-08T08:06:00;7.43;;;4.90;;
76962;SDS011;65902;51.452;7.198;2023-09-08T08:07:01;6.35;;;4.70;;
76962;SDS011;65902;51.452;7.198;2023-09-08T08:08:02;8.10;;;5.22;;
76962;SDS011;65902;51.452;7.198;2023-09-08T08:09:03;8.35;;;4.78;;
76962;SDS011;65902;51.452;7.198;2023-09-08T08:10:03;6.32;;;4.97;;